TimeCST,TemperatureF,Dew PointF,Humidity,Sea Level PressureIn,VisibilityMPH,Wind Direction,Wind SpeedMPH,Gust SpeedMPH,PrecipitationIn,Events,Conditions,WindDirDegrees,DateUTC
12:53 AM,26.1,21.0,81,30.52,10.0,Calm,Calm,-,N/A,,Clear,0,2013-01-18 06:53:00
1:53 AM,23.0,19.0,85,30.54,10.0,Calm,Calm,-,N/A,,Clear,0,2013-01-18 07:53:00
2:53 AM,23.0,19.0,85,30.54,10.0,Calm,Calm,-,N/A,,Clear,0,2013-01-18 08:53:00
3:53 AM,21.9,19.0,89,30.52,10.0,Calm,Calm,-,N/A,,Clear,0,2013-01-18 09:53:00
4:53 AM,24.1,19.0,81,30.52,10.0,WSW,3.5,-,N/A,,Clear,240,2013-01-18 10:53:00
5:53 AM,21.9,18.0,85,30.52,10.0,Calm,Calm,-,N/A,,Clear,0,2013-01-18 11:53:00
6:53 AM,21.9,17.1,82,30.52,10.0,Calm,Calm,-,N/A,,Clear,0,2013-01-18 12:53:00
7:53 AM,27.0,19.0,72,30.52,10.0,South,5.8,-,N/A,,Clear,180,2013-01-18 13:53:00
8:53 AM,32.0,21.0,64,30.52,10.0,South,6.9,-,N/A,,Clear,180,2013-01-18 14:53:00
9:53 AM,37.0,23.0,57,30.52,10.0,SSW,6.9,-,N/A,,Clear,210,2013-01-18 15:53:00
10:53 AM,39.9,23.0,51,30.50,10.0,South,8.1,-,N/A,,Clear,180,2013-01-18 16:53:00
11:53 AM,44.1,25.0,47,30.45,10.0,South,6.9,-,N/A,,Clear,190,2013-01-18 17:53:00
12:53 PM,46.9,25.0,42,30.39,10.0,South,11.5,-,N/A,,Clear,190,2013-01-18 18:53:00
1:53 PM,48.9,24.1,38,30.37,10.0,SSW,13.8,18.4,N/A,,Clear,210,2013-01-18 19:53:00
2:53 PM,51.1,23.0,33,30.34,10.0,SSW,10.4,18.4,N/A,,Clear,200,2013-01-18 20:53:00
3:53 PM,51.1,24.1,35,30.32,10.0,SSW,10.4,-,N/A,,Clear,200,2013-01-18 21:53:00
4:53 PM,48.9,25.0,39,30.31,10.0,South,10.4,17.3,N/A,,Clear,190,2013-01-18 22:53:00
5:53 PM,46.0,24.1,42,30.30,10.0,South,8.1,-,N/A,,Clear,180,2013-01-18 23:53:00
6:53 PM,44.1,25.0,47,30.31,10.0,South,8.1,-,N/A,,Clear,170,2013-01-19 00:53:00
7:53 PM,44.1,26.1,49,30.29,10.0,South,11.5,-,N/A,,Clear,190,2013-01-19 01:53:00
8:53 PM,42.1,26.1,53,30.28,10.0,SSW,8.1,-,N/A,,Clear,200,2013-01-19 02:53:00
9:53 PM,39.9,26.1,58,30.27,10.0,SSW,6.9,-,N/A,,Clear,200,2013-01-19 03:53:00
10:53 PM,39.9,26.1,58,30.25,10.0,SSW,5.8,-,N/A,,Clear,200,2013-01-19 04:53:00
11:53 PM,37.9,26.1,62,30.24,10.0,SSW,8.1,-,N/A,,Clear,200,2013-01-19 05:53:00